createdAt,value
2022-11-18T00:04:39.214Z,96645.25
2022-11-18T00:09:41.080Z,96644.81
2022-11-18T00:14:42.938Z,96645.34
2022-11-18T00:19:44.832Z,96646.66
2022-11-18T00:24:46.723Z,96641.84
2022-11-18T00:29:48.544Z,96646.38
2022-11-18T00:34:50.377Z,96649.13
2022-11-18T00:39:52.249Z,96644.59
2022-11-18T00:44:54.238Z,96650.56
2022-11-18T00:49:56.124Z,96646.38
2022-11-18T00:54:58.075Z,96653.13
2022-11-18T01:00:00.147Z,96646.56
2022-11-18T01:05:02.044Z,96643.53
2022-11-18T01:10:04.315Z,96653.22
2022-11-18T01:15:06.605Z,96645.84
2022-11-18T01:20:08.999Z,96654.53
2022-11-18T01:25:11.045Z,96652.75
2022-11-18T01:30:13.510Z,96642.63
2022-11-18T01:35:15.686Z,96644.41
2022-11-18T01:40:17.655Z,96642.00
2022-11-18T01:45:29.030Z,96644.56
2022-11-18T01:50:32.981Z,96642.97
2022-11-18T01:55:41.838Z,96641.53
2022-11-18T02:00:43.716Z,96645.91
2022-11-18T02:05:48.283Z,96647.66
2022-11-18T02:10:50.129Z,96639.16
2022-11-18T02:16:13.995Z,96643.16
2022-11-18T02:21:39.880Z,96643.94
2022-11-18T02:27:21.997Z,96638.81
2022-11-18T02:32:32.134Z,96626.09
2022-11-18T02:37:46.894Z,96621.75
2022-11-18T02:42:55.513Z,96621.91
2022-11-18T02:48:05.692Z,96626.56
2022-11-18T02:53:11.071Z,96625.22
2022-11-18T02:58:16.622Z,96612.97
2022-11-18T03:03:33.726Z,96622.31
2022-11-18T03:08:43.232Z,96617.94
2022-11-18T03:14:37.879Z,96620.97
2022-11-18T03:19:51.507Z,96631.09
2022-11-18T03:25:30.034Z,96627.38
2022-11-18T03:30:34.536Z,96624.19
2022-11-18T03:35:41.860Z,96620.00
2022-11-18T03:40:53.129Z,96623.91
2022-11-18T03:46:08.663Z,96626.84
2022-11-18T03:51:15.304Z,96637.13
2022-11-18T03:56:22.746Z,96644.06
2022-11-18T04:01:31.780Z,96653.38
2022-11-18T04:06:48.352Z,96665.47
2022-11-18T04:12:03.072Z,96665.97
2022-11-18T04:17:17.055Z,96668.28
2022-11-18T04:22:19.422Z,96665.59
2022-11-18T04:27:21.292Z,96671.06
2022-11-18T04:32:23.271Z,96674.31
2022-11-18T04:37:25.669Z,96669.50
2022-11-18T04:42:28.274Z,96662.56
2022-11-18T04:47:30.354Z,96660.00
2022-11-18T04:52:32.163Z,96665.31
2022-11-18T04:57:33.937Z,96660.19
2022-11-18T05:02:35.973Z,96668.06
2022-11-18T05:07:37.807Z,96676.94
2022-11-18T05:12:49.011Z,96682.44
2022-11-18T05:17:52.132Z,96680.66
2022-11-18T05:22:54.066Z,96680.81
2022-11-18T05:27:56.177Z,96683.41
2022-11-18T05:32:58.076Z,96679.84
2022-11-18T05:38:01.755Z,96689.97
2022-11-18T05:43:12.743Z,96698.50
2022-11-18T05:48:14.754Z,96717.50
2022-11-18T05:53:19.075Z,96717.50
2022-11-18T05:58:21.353Z,96717.38
2022-11-18T06:03:30.917Z,96727.53
2022-11-18T06:08:42.272Z,96741.69
2022-11-18T06:14:03.771Z,96738.50
2022-11-18T06:19:07.394Z,96738.50
2022-11-18T06:24:10.152Z,96732.72
2022-11-18T06:29:15.151Z,96748.78
2022-11-18T06:34:17.686Z,96754.91
2022-11-18T06:39:20.027Z,96759.91
2022-11-18T06:44:22.537Z,96763.97
2022-11-18T06:49:26.008Z,96773.47
2022-11-18T06:54:27.864Z,96781.06
2022-11-18T06:59:29.728Z,96779.63
2022-11-18T07:04:33.695Z,96792.63
2022-11-18T07:09:36.864Z,96796.50
2022-11-18T07:14:38.753Z,96802.97
2022-11-18T07:19:40.690Z,96802.34
2022-11-18T07:24:43.426Z,96809.91
2022-11-18T07:29:45.148Z,96808.16
2022-11-18T07:34:46.983Z,96812.50
2022-11-18T07:39:48.730Z,96824.22
2022-11-18T07:44:50.527Z,96824.06
2022-11-18T07:49:52.336Z,96831.63
2022-11-18T07:54:54.372Z,96834.66
2022-11-18T07:59:56.261Z,96844.94
2022-11-18T08:04:58.084Z,96843.66
2022-11-18T08:09:59.864Z,96846.06
2022-11-18T08:15:01.684Z,96857.31
2022-11-18T08:20:03.814Z,96856.34
2022-11-18T08:25:05.972Z,96857.59
2022-11-18T08:30:08.660Z,96861.78
2022-11-18T08:35:11.558Z,96864.66
2022-11-18T08:40:13.952Z,96866.56
2022-11-18T08:45:15.908Z,96863.69
2022-11-18T08:50:17.914Z,96869.94
2022-11-18T08:55:19.748Z,96868.31
2022-11-18T09:00:21.614Z,96871.69
2022-11-18T09:05:23.473Z,96870.88
2022-11-18T09:10:25.317Z,96881.31
2022-11-18T09:15:29.698Z,96889.66
2022-11-18T09:20:31.541Z,96906.16
2022-11-18T09:25:33.409Z,96905.97
2022-11-18T09:30:35.238Z,96911.41
2022-11-18T09:35:42.415Z,96906.44
2022-11-18T09:41:12.784Z,96909.97
2022-11-18T09:46:33.964Z,96923.25
2022-11-18T09:51:49.774Z,96938.47
2022-11-18T09:56:54.194Z,96940.50
2022-11-18T10:02:03.311Z,96935.97
2022-11-18T10:07:19.279Z,96939.66
2022-11-18T10:12:37.311Z,96951.63
2022-11-18T10:17:57.347Z,96952.88
2022-11-18T10:23:15.879Z,96963.38
2022-11-18T10:28:30.911Z,96970.81
2022-11-18T10:33:33.420Z,96980.69
2022-11-18T10:38:35.317Z,96982.09
2022-11-18T10:43:52.184Z,96991.31
2022-11-18T10:49:09.150Z,96988.69
2022-11-18T10:54:19.365Z,96994.91
2022-11-18T10:59:35.089Z,97013.66
2022-11-18T11:04:38.567Z,97020.25
2022-11-18T11:09:40.556Z,97032.84
2022-11-18T11:14:57.644Z,97030.28
2022-11-18T11:20:20.893Z,97030.94
2022-11-18T11:31:20.369Z,97042.22
2022-11-18T11:36:22.256Z,97040.75
2022-11-18T11:41:24.817Z,97045.81
2022-11-18T11:47:14.516Z,97060.28
2022-11-18T11:52:28.204Z,97050.69
2022-11-18T11:58:01.382Z,97051.22
2022-11-18T12:03:14.428Z,97051.94
2022-11-18T12:08:31.127Z,97056.16
2022-11-18T12:13:53.060Z,97061.44
2022-11-18T12:19:18.157Z,97064.13
2022-11-18T12:24:23.138Z,97072.69
2022-11-18T12:29:27.935Z,97077.28
2022-11-18T12:34:37.444Z,97082.97
2022-11-18T12:39:41.947Z,97088.91
2022-11-18T12:44:46.386Z,97091.31
2022-11-18T12:49:48.197Z,97098.03
2022-11-18T12:54:50.907Z,97104.63
2022-11-18T12:59:52.775Z,97106.69
2022-11-18T13:05:11.095Z,97105.50
2022-11-18T13:10:23.737Z,97118.47
2022-11-18T13:15:44.613Z,97121.44
2022-11-18T13:21:30.887Z,97131.72
2022-11-18T13:26:34.675Z,97135.22
2022-11-18T13:31:48.739Z,97144.41
2022-11-18T13:36:52.939Z,97144.41
2022-11-18T13:42:04.308Z,97156.53
2022-11-18T13:47:06.296Z,97161.63
2022-11-18T13:52:18.989Z,97163.53
2022-11-18T13:57:23.559Z,97182.38
2022-11-18T14:02:25.449Z,97189.94
2022-11-18T14:07:35.545Z,97197.72
2022-11-18T14:12:40.788Z,97208.22
2022-11-18T14:18:02.022Z,97210.63
2022-11-18T14:23:05.676Z,97214.00
2022-11-18T14:28:27.031Z,97219.91
2022-11-18T14:33:30.116Z,97233.09
2022-11-18T14:44:01.628Z,97229.69
2022-11-18T14:49:06.554Z,97244.03
2022-11-18T14:54:14.051Z,97251.41
2022-11-18T14:59:19.092Z,97254.75
2022-11-18T15:04:22.161Z,97264.97
2022-11-18T15:09:24.865Z,97266.84
2022-11-18T15:14:26.614Z,97277.19
2022-11-18T15:19:31.988Z,97289.56
2022-11-18T15:24:34.026Z,97290.94
2022-11-18T15:29:35.905Z,97295.91
2022-11-18T15:34:37.773Z,97294.44
2022-11-18T15:39:39.894Z,97290.81
2022-11-18T15:44:41.915Z,97302.53
2022-11-18T15:49:45.433Z,97307.38
2022-11-18T15:54:48.518Z,97326.44
2022-11-18T15:59:50.333Z,97335.06
2022-11-18T16:04:54.769Z,97331.00
2022-11-18T16:10:15.074Z,97356.19
2022-11-18T16:15:36.386Z,97352.25
2022-11-18T16:20:38.209Z,97365.84
2022-11-18T16:25:44.649Z,97382.78
2022-11-18T16:31:09.115Z,97380.50
2022-11-18T16:36:10.912Z,97389.91
2022-11-18T16:41:31.285Z,97389.09
2022-11-18T16:46:35.095Z,97403.84
2022-11-18T16:51:37.008Z,97401.44
2022-11-18T16:56:40.594Z,97401.56
2022-11-18T17:01:42.917Z,97406.47
2022-11-18T17:06:48.564Z,97410.94
2022-11-18T17:11:52.347Z,97417.78
2022-11-18T17:16:54.282Z,97424.06
2022-11-18T17:21:56.656Z,97422.38
2022-11-18T17:26:58.546Z,97430.41
2022-11-18T17:32:01.527Z,97440.13
2022-11-18T17:37:06.983Z,97449.53
2022-11-18T17:42:15.106Z,97465.78
2022-11-18T17:47:18.176Z,97463.47
2022-11-18T17:52:20.074Z,97472.06
2022-11-18T17:57:21.999Z,97474.28
2022-11-18T18:02:24.026Z,97478.00
2022-11-18T18:07:25.944Z,97479.50
2022-11-18T18:12:46.202Z,97484.38
2022-11-18T18:17:48.620Z,97493.88
2022-11-18T18:22:50.449Z,97495.88
2022-11-18T18:27:52.977Z,97495.75
2022-11-18T18:32:54.807Z,97491.34
2022-11-18T18:37:56.719Z,97511.53
2022-11-18T18:42:58.578Z,97507.34
2022-11-18T18:48:03.993Z,97520.09
2022-11-18T18:53:05.908Z,97516.38
2022-11-18T18:58:08.717Z,97516.16
2022-11-18T19:03:10.795Z,97523.69
2022-11-18T19:08:12.842Z,97529.84
2022-11-18T19:13:14.742Z,97536.69
2022-11-18T19:18:16.706Z,97537.38
2022-11-18T19:23:19.626Z,97542.25
2022-11-18T19:28:21.563Z,97559.09
2022-11-18T19:33:23.557Z,97552.47
2022-11-18T19:38:25.333Z,97560.03
2022-11-18T19:43:27.442Z,97568.63
2022-11-18T19:48:29.832Z,97571.16
2022-11-18T19:53:32.091Z,97565.50
2022-11-18T19:58:36.458Z,97568.97
2022-11-18T20:03:38.558Z,97568.97
2022-11-18T20:08:41.184Z,97587.19
2022-11-18T20:13:44.499Z,97587.31
2022-11-18T20:18:48.842Z,97592.41
2022-11-18T20:23:58.698Z,97588.56
2022-11-18T20:29:00.714Z,97589.03
2022-11-18T20:34:03.046Z,97599.72
2022-11-18T20:39:07.685Z,97601.09
2022-11-18T20:44:09.575Z,97605.28
2022-11-18T20:49:11.612Z,97599.59
2022-11-18T20:54:13.718Z,97616.44
2022-11-18T20:59:15.718Z,97620.84
2022-11-18T21:04:17.821Z,97624.91
2022-11-18T21:09:19.932Z,97630.25
2022-11-18T21:14:25.536Z,97622.22
2022-11-18T21:19:28.869Z,97623.84
2022-11-18T21:24:33.058Z,97618.97
2022-11-18T21:29:34.981Z,97637.09
2022-11-18T21:34:36.873Z,97640.22
2022-11-18T21:39:41.428Z,97636.63
2022-11-18T21:44:43.248Z,97637.19
2022-11-18T21:49:45.281Z,97636.38
2022-11-18T21:54:47.124Z,97651.59
2022-11-18T21:59:49.126Z,97660.31
2022-11-18T22:04:53.831Z,97652.19
2022-11-18T22:09:55.677Z,97655.53
2022-11-18T22:14:57.466Z,97671.78
2022-11-18T22:19:59.203Z,97672.72
2022-11-18T22:25:01.012Z,97665.16
2022-11-18T22:30:02.793Z,97666.31
2022-11-18T22:35:04.895Z,97674.22
2022-11-18T22:40:07.657Z,97660.53
2022-11-18T22:45:09.667Z,97667.13
2022-11-18T22:50:11.484Z,97678.03
2022-11-18T22:55:13.262Z,97689.53
2022-11-18T23:00:16.400Z,97688.47
2022-11-18T23:05:18.400Z,97703.69
2022-11-18T23:10:20.249Z,97711.34
2022-11-18T23:15:22.149Z,97710.97
2022-11-18T23:20:23.975Z,97723.38
2022-11-18T23:25:25.795Z,97721.88
2022-11-18T23:30:27.807Z,97739.63
2022-11-18T23:35:29.709Z,97732.56
2022-11-18T23:40:31.797Z,97736.50
2022-11-18T23:45:33.644Z,97742.19
2022-11-18T23:50:39.315Z,97731.75
2022-11-18T23:55:41.393Z,97735.25
